Longview, WA (98632)

5:50 PM PST on January 21, 2017 (GMT -0800)
Old West Side | | Change Station

Elev 30 ft 46.14 °N, 122.95 °W | Updated 5 seconds ago

Overcast
Overcast
43.7 °F
Feels Like 44 °F
N
0.0
Wind Variable Wind from ESE

Today
High -- | Low -- °F
--% Chance of Precip.
Yesterday
High -- | Low -- °F
Precip. -- in
Pressure 29.53 in
Visibility -9999.0 miles
Clouds Scattered Clouds 1300 ft
Overcast 4600 ft
Windchill 44 °F
Dew Point 42 °F
Humidity 93%
Rainfall 0.00 in
Snow Depth Not available.
7:45 AM 5:01 PM
Waning Crescent, 30% visible
SPECI KKLS 220136Z AUTO 14009KT SCT013 OVC046 06/06 A2953 RMK AO2 PWINO $
Pressure 29.53 in
Visibility -9999.0 miles
Clouds Scattered Clouds 1300 ft
Overcast 4600 ft
Windchill 44 °F
Dew Point 42 °F
Humidity 93%
Rainfall 0.00 in
Snow Depth Not available.
7:45 AM 5:01 PM
Waning Crescent, 30% visible
SPECI KKLS 220136Z AUTO 14009KT SCT013 OVC046 06/06 A2953 RMK AO2 PWINO $

Get Your Daily Forecast Email!

Thanks for signing up!

Be on the lookout for a verification email in your inbox.

You'll start receiving the daily forecast at 8 AM.

×

10-Day Weather Forecast

Almanac

Astronomy

Jan. 21, 2017 Rise Set
Actual Time
Civil Twilight
Nautical Twilight
Astronomical Twilight
Moon
Length of Visible Light
Length of Day
Tomorrow will be .
, % of the Moon is Illuminated

Today's Extremes

State Highs State Lows

Community

WunderPhotos

Upload Photos

1,962,540 photos uploaded!

WunderBlog® & News

Nearby

Air Quality

  Air Quality AQ Index Pollutant
Not available.

Snow Depth

Station Depth Elevation

Earthquake Activity

City Distance Mag. Time & Date
Minimum magnitude displayed is 2.5.

Coastal Water Temperatures

Place Temperature

Stations

Nearby Weather Stations

Station Location Temp. Windchill Dew Point Humidity Wind Precip. Elev Updated Type
                   

Watches & Warnings

Small Craft for Rough Bar Advisory
Issued: 2:24 PM PST Jan. 21, 2017 – National Weather Service

... Small Craft Advisory for rough bar remains in effect until
3 PM PST Sunday...

* in the Main Channel...

* general seas... 19 feet Saturday afternoon... subsiding to 16
feet late Saturday night through Sunday.

* First Ebb... seas temporarily building to 21 feet with
breakers during the Ebb around 1215 am Sunday.

* Second Ebb... seas temporarily building to 17 feet with breakers
during the Ebb around 1 PM Sunday.

Precautionary/preparedness actions...

A Small Craft Advisory for rough bar means that wave conditions
are expected to be hazardous to small craft in or near Harbor
entrances.